sensor_id;sensor_type;location;lat;lon;timestamp;temperature;humidity
19966;DHT22;10144;50.874;4.762;2023-05-07T00:01:11;16.30;99.90
19966;DHT22;10144;50.874;4.762;2023-05-07T00:03:42;16.30;99.90
19966;DHT22;10144;50.874;4.762;2023-05-07T00:06:11;16.30;99.90
19966;DHT22;10144;50.874;4.762;2023-05-07T00:08:43;16.30;99.90
19966;DHT22;10144;50.874;4.762;2023-05-07T00:11:15;16.30;99.90
19966;DHT22;10144;50.874;4.762;2023-05-07T00:13:58;16.30;99.90
19966;DHT22;10144;50.874;4.762;2023-05-07T00:16:26;16.10;99.90
19966;DHT22;10144;50.874;4.762;2023-05-07T00:18:55;16.10;99.90
19966;DHT22;10144;50.874;4.762;2023-05-07T00:21:20;16.10;99.90
19966;DHT22;10144;50.874;4.762;2023-05-07T00:23:50;16.10;99.90
19966;DHT22;10144;50.874;4.762;2023-05-07T00:26:18;16.20;99.90
19966;DHT22;10144;50.874;4.762;2023-05-07T00:28:50;16.30;99.90
19966;DHT22;10144;50.874;4.762;2023-05-07T00:31:16;16.30;99.90
19966;DHT22;10144;50.874;4.762;2023-05-07T00:33:45;16.20;99.90
19966;DHT22;10144;50.874;4.762;2023-05-07T00:36:16;16.30;99.90
19966;DHT22;10144;50.874;4.762;2023-05-07T00:38:50;16.30;99.90
19966;DHT22;10144;50.874;4.762;2023-05-07T00:41:16;16.40;99.90
19966;DHT22;10144;50.874;4.762;2023-05-07T00:43:45;16.40;99.90
19966;DHT22;10144;50.874;4.762;2023-05-07T00:46:13;16.30;99.90
19966;DHT22;10144;50.874;4.762;2023-05-07T00:48:45;16.30;99.90
19966;DHT22;10144;50.874;4.762;2023-05-07T00:51:18;16.30;99.90
19966;DHT22;10144;50.874;4.762;2023-05-07T00:53:49;16.20;99.90
19966;DHT22;10144;50.874;4.762;2023-05-07T00:56:16;16.10;99.90
19966;DHT22;10144;50.874;4.762;2023-05-07T00:58:42;16.20;99.90
19966;DHT22;10144;50.874;4.762;2023-05-07T01:01:11;16.20;99.90
19966;DHT22;10144;50.874;4.762;2023-05-07T01:03:43;16.20;99.90
19966;DHT22;10144;50.874;4.762;2023-05-07T01:06:15;16.10;99.90
19966;DHT22;10144;50.874;4.762;2023-05-07T01:08:42;16.10;99.90
19966;DHT22;10144;50.874;4.762;2023-05-07T01:11:10;16.10;99.90
19966;DHT22;10144;50.874;4.762;2023-05-07T01:13:40;16.10;99.90
19966;DHT22;10144;50.874;4.762;2023-05-07T01:16:10;16.10;99.90
19966;DHT22;10144;50.874;4.762;2023-05-07T01:18:37;16.00;99.90
19966;DHT22;10144;50.874;4.762;2023-05-07T01:21:11;15.90;99.90
19966;DHT22;10144;50.874;4.762;2023-05-07T01:23:39;16.00;99.90
19966;DHT22;10144;50.874;4.762;2023-05-07T01:26:06;16.00;99.90
19966;DHT22;10144;50.874;4.762;2023-05-07T01:28:35;16.00;99.90
19966;DHT22;10144;50.874;4.762;2023-05-07T01:31:27;16.30;99.90
19966;DHT22;10144;50.874;4.762;2023-05-07T01:33:56;16.40;99.90
19966;DHT22;10144;50.874;4.762;2023-05-07T01:36:25;16.40;99.90
19966;DHT22;10144;50.874;4.762;2023-05-07T01:38:59;16.50;99.90
19966;DHT22;10144;50.874;4.762;2023-05-07T01:41:28;16.50;99.90
19966;DHT22;10144;50.874;4.762;2023-05-07T01:43:54;16.50;99.90
19966;DHT22;10144;50.874;4.762;2023-05-07T01:46:21;16.60;99.90
19966;DHT22;10144;50.874;4.762;2023-05-07T01:48:48;16.60;99.90
19966;DHT22;10144;50.874;4.762;2023-05-07T01:51:17;16.50;99.90
19966;DHT22;10144;50.874;4.762;2023-05-07T01:53:48;16.60;99.90
19966;DHT22;10144;50.874;4.762;2023-05-07T01:56:18;16.60;99.90
19966;DHT22;10144;50.874;4.762;2023-05-07T01:58:45;16.60;99.90
19966;DHT22;10144;50.874;4.762;2023-05-07T02:01:14;16.50;99.90
19966;DHT22;10144;50.874;4.762;2023-05-07T02:03:43;16.50;99.90
19966;DHT22;10144;50.874;4.762;2023-05-07T02:06:12;16.50;99.90
19966;DHT22;10144;50.874;4.762;2023-05-07T02:08:38;16.50;99.90
19966;DHT22;10144;50.874;4.762;2023-05-07T02:11:04;16.50;99.90
19966;DHT22;10144;50.874;4.762;2023-05-07T02:13:36;16.50;99.90
19966;DHT22;10144;50.874;4.762;2023-05-07T02:16:03;16.50;99.90
19966;DHT22;10144;50.874;4.762;2023-05-07T02:18:32;16.60;99.90
19966;DHT22;10144;50.874;4.762;2023-05-07T02:21:01;16.50;99.90
19966;DHT22;10144;50.874;4.762;2023-05-07T02:23:33;16.60;99.90
19966;DHT22;10144;50.874;4.762;2023-05-07T02:26:03;16.50;99.90
19966;DHT22;10144;50.874;4.762;2023-05-07T02:28:35;16.50;99.90
19966;DHT22;10144;50.874;4.762;2023-05-07T02:31:04;16.50;99.90
19966;DHT22;10144;50.874;4.762;2023-05-07T02:33:33;16.40;99.90
19966;DHT22;10144;50.874;4.762;2023-05-07T02:36:12;16.40;99.90
19966;DHT22;10144;50.874;4.762;2023-05-07T02:38:44;16.30;99.90
19966;DHT22;10144;50.874;4.762;2023-05-07T02:41:13;16.30;99.90
19966;DHT22;10144;50.874;4.762;2023-05-07T02:43:42;16.30;99.90
19966;DHT22;10144;50.874;4.762;2023-05-07T02:46:08;16.40;99.90
19966;DHT22;10144;50.874;4.762;2023-05-07T02:48:35;16.40;99.90
19966;DHT22;10144;50.874;4.762;2023-05-07T02:51:02;16.30;99.90
19966;DHT22;10144;50.874;4.762;2023-05-07T02:53:34;16.30;99.90
19966;DHT22;10144;50.874;4.762;2023-05-07T02:56:04;16.10;99.90
19966;DHT22;10144;50.874;4.762;2023-05-07T02:58:37;15.90;99.90
19966;DHT22;10144;50.874;4.762;2023-05-07T03:01:08;15.80;99.90
19966;DHT22;10144;50.874;4.762;2023-05-07T03:04:05;15.80;99.90
19966;DHT22;10144;50.874;4.762;2023-05-07T03:06:37;15.70;99.90
19966;DHT22;10144;50.874;4.762;2023-05-07T03:09:06;15.70;99.90
19966;DHT22;10144;50.874;4.762;2023-05-07T03:11:37;15.70;99.90
19966;DHT22;10144;50.874;4.762;2023-05-07T03:14:03;15.60;99.90
19966;DHT22;10144;50.874;4.762;2023-05-07T03:16:29;15.70;99.90
19966;DHT22;10144;50.874;4.762;2023-05-07T03:18:57;15.90;99.90
19966;DHT22;10144;50.874;4.762;2023-05-07T03:21:26;15.90;99.90
19966;DHT22;10144;50.874;4.762;2023-05-07T03:23:55;16.00;99.90
19966;DHT22;10144;50.874;4.762;2023-05-07T03:26:21;16.00;99.90
19966;DHT22;10144;50.874;4.762;2023-05-07T03:28:50;15.90;99.90
19966;DHT22;10144;50.874;4.762;2023-05-07T03:31:21;15.80;99.90
19966;DHT22;10144;50.874;4.762;2023-05-07T03:33:57;15.80;99.90
19966;DHT22;10144;50.874;4.762;2023-05-07T03:36:23;15.90;99.90
19966;DHT22;10144;50.874;4.762;2023-05-07T03:38:54;15.90;99.90
19966;DHT22;10144;50.874;4.762;2023-05-07T03:41:20;15.90;99.90
19966;DHT22;10144;50.874;4.762;2023-05-07T03:43:46;16.00;99.90
19966;DHT22;10144;50.874;4.762;2023-05-07T03:46:15;15.90;99.90
19966;DHT22;10144;50.874;4.762;2023-05-07T03:49:07;15.90;99.90
19966;DHT22;10144;50.874;4.762;2023-05-07T03:51:36;15.90;99.90
19966;DHT22;10144;50.874;4.762;2023-05-07T03:54:03;15.90;99.90
19966;DHT22;10144;50.874;4.762;2023-05-07T03:56:32;16.00;99.90
19966;DHT22;10144;50.874;4.762;2023-05-07T03:58:58;16.00;99.90
19966;DHT22;10144;50.874;4.762;2023-05-07T04:01:26;16.00;99.90
19966;DHT22;10144;50.874;4.762;2023-05-07T04:03:56;16.10;99.90
19966;DHT22;10144;50.874;4.762;2023-05-07T04:06:22;16.00;99.90
19966;DHT22;10144;50.874;4.762;2023-05-07T04:08:51;15.90;99.90
19966;DHT22;10144;50.874;4.762;2023-05-07T04:11:16;15.80;99.90
19966;DHT22;10144;50.874;4.762;2023-05-07T04:13:43;15.90;99.90
19966;DHT22;10144;50.874;4.762;2023-05-07T04:16:09;16.00;99.90
19966;DHT22;10144;50.874;4.762;2023-05-07T04:18:37;16.10;99.90
19966;DHT22;10144;50.874;4.762;2023-05-07T04:21:16;16.00;99.90
19966;DHT22;10144;50.874;4.762;2023-05-07T04:23:47;15.90;99.90
19966;DHT22;10144;50.874;4.762;2023-05-07T04:26:13;15.90;99.90
19966;DHT22;10144;50.874;4.762;2023-05-07T04:28:40;15.70;99.90
19966;DHT22;10144;50.874;4.762;2023-05-07T04:31:21;15.60;99.90
19966;DHT22;10144;50.874;4.762;2023-05-07T04:33:50;15.70;99.90
19966;DHT22;10144;50.874;4.762;2023-05-07T04:36:19;15.60;99.90
19966;DHT22;10144;50.874;4.762;2023-05-07T04:38:49;15.70;99.90
19966;DHT22;10144;50.874;4.762;2023-05-07T04:41:15;15.80;99.90
19966;DHT22;10144;50.874;4.762;2023-05-07T04:43:45;15.80;99.90
19966;DHT22;10144;50.874;4.762;2023-05-07T04:46:34;15.80;99.90
19966;DHT22;10144;50.874;4.762;2023-05-07T04:49:02;15.80;99.90
19966;DHT22;10144;50.874;4.762;2023-05-07T04:51:28;15.90;99.90
19966;DHT22;10144;50.874;4.762;2023-05-07T04:53:54;15.90;99.90
19966;DHT22;10144;50.874;4.762;2023-05-07T04:56:21;15.90;99.90
19966;DHT22;10144;50.874;4.762;2023-05-07T04:58:48;16.00;99.90
19966;DHT22;10144;50.874;4.762;2023-05-07T05:01:19;16.00;99.90
19966;DHT22;10144;50.874;4.762;2023-05-07T05:03:48;16.10;99.90
19966;DHT22;10144;50.874;4.762;2023-05-07T05:06:16;16.20;99.90
19966;DHT22;10144;50.874;4.762;2023-05-07T05:08:45;16.30;99.90
19966;DHT22;10144;50.874;4.762;2023-05-07T05:11:13;16.40;99.90
19966;DHT22;10144;50.874;4.762;2023-05-07T05:13:41;16.60;99.90
19966;DHT22;10144;50.874;4.762;2023-05-07T05:16:10;16.50;99.90
19966;DHT22;10144;50.874;4.762;2023-05-07T05:18:38;16.50;99.90
19966;DHT22;10144;50.874;4.762;2023-05-07T05:21:05;16.50;99.90
19966;DHT22;10144;50.874;4.762;2023-05-07T05:23:37;16.60;99.90
19966;DHT22;10144;50.874;4.762;2023-05-07T05:26:04;16.60;99.90
19966;DHT22;10144;50.874;4.762;2023-05-07T05:28:32;16.80;99.90
19966;DHT22;10144;50.874;4.762;2023-05-07T05:30:58;16.90;99.90
19966;DHT22;10144;50.874;4.762;2023-05-07T05:33:27;16.90;99.90
19966;DHT22;10144;50.874;4.762;2023-05-07T05:35:56;16.80;99.90
19966;DHT22;10144;50.874;4.762;2023-05-07T05:38:24;16.70;99.90
19966;DHT22;10144;50.874;4.762;2023-05-07T05:40:51;16.70;99.90
19966;DHT22;10144;50.874;4.762;2023-05-07T05:43:18;16.70;99.90
19966;DHT22;10144;50.874;4.762;2023-05-07T05:45:47;16.80;99.90
19966;DHT22;10144;50.874;4.762;2023-05-07T05:48:19;16.90;99.90
19966;DHT22;10144;50.874;4.762;2023-05-07T05:50:48;16.90;99.90
19966;DHT22;10144;50.874;4.762;2023-05-07T05:53:20;16.80;99.90
19966;DHT22;10144;50.874;4.762;2023-05-07T05:55:45;17.00;99.90
19966;DHT22;10144;50.874;4.762;2023-05-07T05:58:12;17.10;99.90
19966;DHT22;10144;50.874;4.762;2023-05-07T06:00:40;17.10;99.90
19966;DHT22;10144;50.874;4.762;2023-05-07T06:03:09;17.10;99.90
19966;DHT22;10144;50.874;4.762;2023-05-07T06:05:36;17.00;99.90
19966;DHT22;10144;50.874;4.762;2023-05-07T06:08:01;17.10;99.90
19966;DHT22;10144;50.874;4.762;2023-05-07T06:10:28;17.20;99.90
19966;DHT22;10144;50.874;4.762;2023-05-07T06:12:55;17.30;99.90
19966;DHT22;10144;50.874;4.762;2023-05-07T06:15:21;17.60;99.90
19966;DHT22;10144;50.874;4.762;2023-05-07T06:17:52;17.70;99.90
19966;DHT22;10144;50.874;4.762;2023-05-07T06:20:18;17.80;99.90
19966;DHT22;10144;50.874;4.762;2023-05-07T06:22:47;17.90;99.90
19966;DHT22;10144;50.874;4.762;2023-05-07T06:25:16;17.90;99.90
19966;DHT22;10144;50.874;4.762;2023-05-07T06:27:41;18.00;99.90
19966;DHT22;10144;50.874;4.762;2023-05-07T06:30:08;18.20;99.90
19966;DHT22;10144;50.874;4.762;2023-05-07T06:32:37;18.30;99.90
19966;DHT22;10144;50.874;4.762;2023-05-07T06:35:03;18.30;99.90
19966;DHT22;10144;50.874;4.762;2023-05-07T06:37:30;18.40;99.90
19966;DHT22;10144;50.874;4.762;2023-05-07T06:39:59;18.40;99.90
19966;DHT22;10144;50.874;4.762;2023-05-07T06:42:28;18.50;99.90
19966;DHT22;10144;50.874;4.762;2023-05-07T06:44:54;18.40;99.90
19966;DHT22;10144;50.874;4.762;2023-05-07T06:47:20;18.30;99.90
19966;DHT22;10144;50.874;4.762;2023-05-07T06:50:04;18.20;99.90
19966;DHT22;10144;50.874;4.762;2023-05-07T06:52:32;18.30;99.90
19966;DHT22;10144;50.874;4.762;2023-05-07T06:54:59;18.40;99.90
19966;DHT22;10144;50.874;4.762;2023-05-07T06:57:31;18.40;99.90
19966;DHT22;10144;50.874;4.762;2023-05-07T06:59:59;18.40;99.90
19966;DHT22;10144;50.874;4.762;2023-05-07T07:02:26;18.50;99.90
19966;DHT22;10144;50.874;4.762;2023-05-07T07:04:55;18.50;99.90
19966;DHT22;10144;50.874;4.762;2023-05-07T07:07:21;18.60;99.90
19966;DHT22;10144;50.874;4.762;2023-05-07T07:09:49;18.70;99.90
19966;DHT22;10144;50.874;4.762;2023-05-07T07:12:19;19.00;99.90
19966;DHT22;10144;50.874;4.762;2023-05-07T07:14:48;19.00;99.90
19966;DHT22;10144;50.874;4.762;2023-05-07T07:17:14;19.00;99.90
19966;DHT22;10144;50.874;4.762;2023-05-07T07:19:40;19.20;99.90
19966;DHT22;10144;50.874;4.762;2023-05-07T07:22:07;19.40;99.90
19966;DHT22;10144;50.874;4.762;2023-05-07T07:24:32;19.60;99.90
19966;DHT22;10144;50.874;4.762;2023-05-07T07:27:01;19.60;99.90
19966;DHT22;10144;50.874;4.762;2023-05-07T07:29:27;19.60;99.90
19966;DHT22;10144;50.874;4.762;2023-05-07T07:31:59;19.50;99.90
19966;DHT22;10144;50.874;4.762;2023-05-07T07:34:27;19.20;99.90
19966;DHT22;10144;50.874;4.762;2023-05-07T07:36:56;19.30;99.90
19966;DHT22;10144;50.874;4.762;2023-05-07T07:39:25;18.80;99.90
19966;DHT22;10144;50.874;4.762;2023-05-07T07:42:10;18.50;99.90
19966;DHT22;10144;50.874;4.762;2023-05-07T07:44:38;18.50;99.90
19966;DHT22;10144;50.874;4.762;2023-05-07T07:47:08;18.50;99.90
19966;DHT22;10144;50.874;4.762;2023-05-07T07:49:36;18.30;99.90
19966;DHT22;10144;50.874;4.762;2023-05-07T07:52:05;18.30;99.90
19966;DHT22;10144;50.874;4.762;2023-05-07T07:54:32;18.50;99.90
19966;DHT22;10144;50.874;4.762;2023-05-07T07:57:01;18.50;99.90
19966;DHT22;10144;50.874;4.762;2023-05-07T07:59:30;18.60;99.90
19966;DHT22;10144;50.874;4.762;2023-05-07T08:01:58;18.60;99.90
19966;DHT22;10144;50.874;4.762;2023-05-07T08:04:34;18.60;99.90
19966;DHT22;10144;50.874;4.762;2023-05-07T08:07:00;18.90;99.90
19966;DHT22;10144;50.874;4.762;2023-05-07T08:09:32;18.80;99.90
19966;DHT22;10144;50.874;4.762;2023-05-07T08:11:57;18.90;99.90
19966;DHT22;10144;50.874;4.762;2023-05-07T08:14:23;18.90;99.90
19966;DHT22;10144;50.874;4.762;2023-05-07T08:16:49;18.80;99.90
19966;DHT22;10144;50.874;4.762;2023-05-07T08:19:15;19.00;99.90
19966;DHT22;10144;50.874;4.762;2023-05-07T08:21:40;19.20;99.90
19966;DHT22;10144;50.874;4.762;2023-05-07T08:24:06;19.20;99.90
19966;DHT22;10144;50.874;4.762;2023-05-07T08:26:32;19.30;99.90
19966;DHT22;10144;50.874;4.762;2023-05-07T08:28:57;19.50;99.90
19966;DHT22;10144;50.874;4.762;2023-05-07T08:31:23;19.50;99.90
19966;DHT22;10144;50.874;4.762;2023-05-07T08:33:50;19.40;99.90
19966;DHT22;10144;50.874;4.762;2023-05-07T08:36:15;19.60;99.90
19966;DHT22;10144;50.874;4.762;2023-05-07T08:38:41;19.80;99.90
19966;DHT22;10144;50.874;4.762;2023-05-07T08:41:10;20.00;99.90
19966;DHT22;10144;50.874;4.762;2023-05-07T08:43:38;20.00;99.90
19966;DHT22;10144;50.874;4.762;2023-05-07T08:46:06;19.90;99.90
19966;DHT22;10144;50.874;4.762;2023-05-07T08:48:34;19.60;99.90
19966;DHT22;10144;50.874;4.762;2023-05-07T08:51:01;19.60;99.90
19966;DHT22;10144;50.874;4.762;2023-05-07T08:53:26;19.50;99.90
19966;DHT22;10144;50.874;4.762;2023-05-07T08:55:53;19.50;99.90
19966;DHT22;10144;50.874;4.762;2023-05-07T08:58:19;19.80;99.90
19966;DHT22;10144;50.874;4.762;2023-05-07T09:00:45;20.00;99.90
19966;DHT22;10144;50.874;4.762;2023-05-07T09:03:12;20.20;99.90
19966;DHT22;10144;50.874;4.762;2023-05-07T09:05:42;20.40;99.90
19966;DHT22;10144;50.874;4.762;2023-05-07T09:08:15;20.10;99.90
19966;DHT22;10144;50.874;4.762;2023-05-07T09:10:42;19.70;99.90
19966;DHT22;10144;50.874;4.762;2023-05-07T09:13:08;19.60;99.90
19966;DHT22;10144;50.874;4.762;2023-05-07T09:15:35;19.70;99.90
19966;DHT22;10144;50.874;4.762;2023-05-07T09:18:01;19.80;99.90
19966;DHT22;10144;50.874;4.762;2023-05-07T09:20:27;20.10;99.90
19966;DHT22;10144;50.874;4.762;2023-05-07T09:22:55;20.10;99.90
19966;DHT22;10144;50.874;4.762;2023-05-07T09:25:31;20.20;99.90
19966;DHT22;10144;50.874;4.762;2023-05-07T09:27:58;20.40;99.90
19966;DHT22;10144;50.874;4.762;2023-05-07T09:30:28;20.30;99.90
19966;DHT22;10144;50.874;4.762;2023-05-07T09:32:54;20.30;99.90
19966;DHT22;10144;50.874;4.762;2023-05-07T09:35:20;20.40;99.90
19966;DHT22;10144;50.874;4.762;2023-05-07T09:37:47;20.30;99.90
19966;DHT22;10144;50.874;4.762;2023-05-07T09:40:24;20.40;99.90
19966;DHT22;10144;50.874;4.762;2023-05-07T09:42:50;20.40;99.90
19966;DHT22;10144;50.874;4.762;2023-05-07T09:45:26;20.30;99.90
19966;DHT22;10144;50.874;4.762;2023-05-07T09:47:55;20.30;99.90
19966;DHT22;10144;50.874;4.762;2023-05-07T09:50:28;20.30;99.90
19966;DHT22;10144;50.874;4.762;2023-05-07T09:52:55;20.20;99.90
19966;DHT22;10144;50.874;4.762;2023-05-07T09:55:23;20.10;99.90
19966;DHT22;10144;50.874;4.762;2023-05-07T09:57:53;20.30;99.90
19966;DHT22;10144;50.874;4.762;2023-05-07T10:00:20;20.30;99.90
19966;DHT22;10144;50.874;4.762;2023-05-07T10:02:51;20.30;99.90
19966;DHT22;10144;50.874;4.762;2023-05-07T10:05:21;20.40;99.90
19966;DHT22;10144;50.874;4.762;2023-05-07T10:07:48;20.40;99.90
19966;DHT22;10144;50.874;4.762;2023-05-07T10:10:14;20.20;99.90
19966;DHT22;10144;50.874;4.762;2023-05-07T10:12:41;20.40;99.90
19966;DHT22;10144;50.874;4.762;2023-05-07T10:15:11;20.50;99.90
19966;DHT22;10144;50.874;4.762;2023-05-07T10:17:40;20.60;99.90
19966;DHT22;10144;50.874;4.762;2023-05-07T10:20:07;20.60;99.90
19966;DHT22;10144;50.874;4.762;2023-05-07T10:22:39;20.50;99.90
19966;DHT22;10144;50.874;4.762;2023-05-07T10:25:25;20.40;99.90
19966;DHT22;10144;50.874;4.762;2023-05-07T10:27:52;20.30;99.90
19966;DHT22;10144;50.874;4.762;2023-05-07T10:30:51;20.40;99.90
19966;DHT22;10144;50.874;4.762;2023-05-07T10:33:16;20.60;99.90
19966;DHT22;10144;50.874;4.762;2023-05-07T10:35:45;20.50;99.90
19966;DHT22;10144;50.874;4.762;2023-05-07T10:38:12;20.60;99.90
19966;DHT22;10144;50.874;4.762;2023-05-07T10:40:38;20.60;99.90
19966;DHT22;10144;50.874;4.762;2023-05-07T10:43:04;20.60;99.90
19966;DHT22;10144;50.874;4.762;2023-05-07T10:45:31;20.70;99.90
19966;DHT22;10144;50.874;4.762;2023-05-07T10:50:32;21.00;99.90
19966;DHT22;10144;50.874;4.762;2023-05-07T10:58:44;20.80;99.90
19966;DHT22;10144;50.874;4.762;2023-05-07T11:01:10;20.80;99.90
19966;DHT22;10144;50.874;4.762;2023-05-07T11:04:14;20.90;99.90
19966;DHT22;10144;50.874;4.762;2023-05-07T11:06:41;20.90;99.90
19966;DHT22;10144;50.874;4.762;2023-05-07T11:09:06;21.10;99.90
19966;DHT22;10144;50.874;4.762;2023-05-07T11:11:48;21.20;99.90
19966;DHT22;10144;50.874;4.762;2023-05-07T11:14:46;21.30;99.90
19966;DHT22;10144;50.874;4.762;2023-05-07T11:17:12;21.30;99.90
19966;DHT22;10144;50.874;4.762;2023-05-07T11:19:56;21.20;99.90
19966;DHT22;10144;50.874;4.762;2023-05-07T11:22:40;20.90;99.90
19966;DHT22;10144;50.874;4.762;2023-05-07T11:25:07;21.10;99.90
19966;DHT22;10144;50.874;4.762;2023-05-07T11:27:33;21.20;99.90
19966;DHT22;10144;50.874;4.762;2023-05-07T11:29:59;21.30;99.90
19966;DHT22;10144;50.874;4.762;2023-05-07T11:32:30;21.30;99.90
19966;DHT22;10144;50.874;4.762;2023-05-07T11:34:57;21.50;99.90
19966;DHT22;10144;50.874;4.762;2023-05-07T11:37:24;21.50;99.90
19966;DHT22;10144;50.874;4.762;2023-05-07T11:39:51;21.50;99.90
19966;DHT22;10144;50.874;4.762;2023-05-07T11:42:35;21.60;99.90
19966;DHT22;10144;50.874;4.762;2023-05-07T11:45:03;21.70;99.90
19966;DHT22;10144;50.874;4.762;2023-05-07T11:47:33;21.60;99.90
19966;DHT22;10144;50.874;4.762;2023-05-07T11:50:05;21.60;99.90
19966;DHT22;10144;50.874;4.762;2023-05-07T11:52:31;21.40;99.90
19966;DHT22;10144;50.874;4.762;2023-05-07T11:54:58;21.50;99.90
19966;DHT22;10144;50.874;4.762;2023-05-07T11:57:25;21.50;99.90
19966;DHT22;10144;50.874;4.762;2023-05-07T11:59:58;21.50;99.90
19966;DHT22;10144;50.874;4.762;2023-05-07T12:02:25;21.60;99.90
19966;DHT22;10144;50.874;4.762;2023-05-07T12:04:54;21.70;99.90
19966;DHT22;10144;50.874;4.762;2023-05-07T12:07:20;21.90;99.90
19966;DHT22;10144;50.874;4.762;2023-05-07T12:09:47;21.80;99.90
19966;DHT22;10144;50.874;4.762;2023-05-07T12:12:14;22.00;99.90
19966;DHT22;10144;50.874;4.762;2023-05-07T12:14:44;22.20;99.90
19966;DHT22;10144;50.874;4.762;2023-05-07T12:17:10;22.20;99.90
19966;DHT22;10144;50.874;4.762;2023-05-07T12:19:38;22.40;99.90
19966;DHT22;10144;50.874;4.762;2023-05-07T12:22:04;22.30;99.90
19966;DHT22;10144;50.874;4.762;2023-05-07T12:24:46;22.30;99.90
19966;DHT22;10144;50.874;4.762;2023-05-07T12:27:16;22.20;99.90
19966;DHT22;10144;50.874;4.762;2023-05-07T12:29:48;22.00;99.90
19966;DHT22;10144;50.874;4.762;2023-05-07T12:32:17;21.90;99.90
19966;DHT22;10144;50.874;4.762;2023-05-07T12:34:44;22.00;99.90
19966;DHT22;10144;50.874;4.762;2023-05-07T12:37:10;21.90;99.90
19966;DHT22;10144;50.874;4.762;2023-05-07T12:39:36;21.70;99.90
19966;DHT22;10144;50.874;4.762;2023-05-07T12:42:02;21.50;99.90
19966;DHT22;10144;50.874;4.762;2023-05-07T12:44:32;21.50;99.90
19966;DHT22;10144;50.874;4.762;2023-05-07T12:46:58;21.60;99.90
19966;DHT22;10144;50.874;4.762;2023-05-07T12:49:26;21.60;99.90
19966;DHT22;10144;50.874;4.762;2023-05-07T12:51:53;21.60;99.90
19966;DHT22;10144;50.874;4.762;2023-05-07T12:54:32;21.70;99.90
19966;DHT22;10144;50.874;4.762;2023-05-07T12:57:19;21.80;99.90
19966;DHT22;10144;50.874;4.762;2023-05-07T12:59:46;21.90;99.90
19966;DHT22;10144;50.874;4.762;2023-05-07T13:02:12;21.80;99.90
19966;DHT22;10144;50.874;4.762;2023-05-07T13:04:38;21.90;99.90
19966;DHT22;10144;50.874;4.762;2023-05-07T13:07:04;22.00;99.90
19966;DHT22;10144;50.874;4.762;2023-05-07T13:09:31;22.10;99.90
19966;DHT22;10144;50.874;4.762;2023-05-07T13:11:57;22.10;99.90
19966;DHT22;10144;50.874;4.762;2023-05-07T13:14:25;22.30;99.90
19966;DHT22;10144;50.874;4.762;2023-05-07T13:16:50;22.40;99.90
19966;DHT22;10144;50.874;4.762;2023-05-07T13:19:16;22.50;99.90
19966;DHT22;10144;50.874;4.762;2023-05-07T13:21:42;22.50;99.90
19966;DHT22;10144;50.874;4.762;2023-05-07T13:24:08;22.50;99.90
19966;DHT22;10144;50.874;4.762;2023-05-07T13:26:34;22.50;99.90
19966;DHT22;10144;50.874;4.762;2023-05-07T13:29:00;22.70;99.90
19966;DHT22;10144;50.874;4.762;2023-05-07T13:31:26;22.80;99.90
19966;DHT22;10144;50.874;4.762;2023-05-07T13:33:51;22.80;99.90
19966;DHT22;10144;50.874;4.762;2023-05-07T13:36:18;22.60;99.90
19966;DHT22;10144;50.874;4.762;2023-05-07T13:38:43;22.50;99.90
19966;DHT22;10144;50.874;4.762;2023-05-07T13:41:10;22.50;99.90
19966;DHT22;10144;50.874;4.762;2023-05-07T13:43:38;22.60;99.90
19966;DHT22;10144;50.874;4.762;2023-05-07T13:46:09;22.40;99.90
19966;DHT22;10144;50.874;4.762;2023-05-07T13:48:50;22.50;99.90
19966;DHT22;10144;50.874;4.762;2023-05-07T13:51:16;22.30;99.90
19966;DHT22;10144;50.874;4.762;2023-05-07T13:53:44;22.30;99.90
19966;DHT22;10144;50.874;4.762;2023-05-07T13:56:13;22.50;99.90
19966;DHT22;10144;50.874;4.762;2023-05-07T13:58:41;22.60;99.90
19966;DHT22;10144;50.874;4.762;2023-05-07T14:01:07;22.60;99.90
19966;DHT22;10144;50.874;4.762;2023-05-07T14:03:33;22.40;99.90
19966;DHT22;10144;50.874;4.762;2023-05-07T14:05:59;22.50;99.90
19966;DHT22;10144;50.874;4.762;2023-05-07T14:08:27;22.40;99.90
19966;DHT22;10144;50.874;4.762;2023-05-07T14:10:52;22.40;99.90
19966;DHT22;10144;50.874;4.762;2023-05-07T14:13:18;22.20;99.90
19966;DHT22;10144;50.874;4.762;2023-05-07T14:15:44;22.20;99.90
19966;DHT22;10144;50.874;4.762;2023-05-07T14:18:14;22.00;99.90
19966;DHT22;10144;50.874;4.762;2023-05-07T14:20:40;22.10;99.90
19966;DHT22;10144;50.874;4.762;2023-05-07T14:23:08;22.30;99.90
19966;DHT22;10144;50.874;4.762;2023-05-07T14:25:34;22.40;99.90
19966;DHT22;10144;50.874;4.762;2023-05-07T14:28:00;22.50;99.90
19966;DHT22;10144;50.874;4.762;2023-05-07T14:30:25;22.50;99.90
19966;DHT22;10144;50.874;4.762;2023-05-07T14:32:51;22.30;99.90
19966;DHT22;10144;50.874;4.762;2023-05-07T14:35:17;22.00;99.90
19966;DHT22;10144;50.874;4.762;2023-05-07T14:37:43;21.90;99.90
19966;DHT22;10144;50.874;4.762;2023-05-07T14:40:09;21.60;99.90
19966;DHT22;10144;50.874;4.762;2023-05-07T14:42:35;21.60;99.90
19966;DHT22;10144;50.874;4.762;2023-05-07T14:45:01;21.60;99.90
19966;DHT22;10144;50.874;4.762;2023-05-07T14:47:27;21.70;99.90
19966;DHT22;10144;50.874;4.762;2023-05-07T14:49:53;21.60;99.90
19966;DHT22;10144;50.874;4.762;2023-05-07T14:52:19;21.50;99.90
19966;DHT22;10144;50.874;4.762;2023-05-07T14:54:45;21.30;99.90
19966;DHT22;10144;50.874;4.762;2023-05-07T14:57:11;21.10;99.90
19966;DHT22;10144;50.874;4.762;2023-05-07T14:59:44;21.10;99.90
19966;DHT22;10144;50.874;4.762;2023-05-07T15:02:11;21.10;99.90
19966;DHT22;10144;50.874;4.762;2023-05-07T15:04:37;21.20;99.90
19966;DHT22;10144;50.874;4.762;2023-05-07T15:07:03;21.30;99.90
19966;DHT22;10144;50.874;4.762;2023-05-07T15:09:29;21.20;99.90
19966;DHT22;10144;50.874;4.762;2023-05-07T15:11:55;21.30;99.90
19966;DHT22;10144;50.874;4.762;2023-05-07T15:14:22;21.30;99.90
19966;DHT22;10144;50.874;4.762;2023-05-07T15:16:48;21.40;99.90
19966;DHT22;10144;50.874;4.762;2023-05-07T15:19:14;21.30;99.90
19966;DHT22;10144;50.874;4.762;2023-05-07T15:21:42;21.40;99.90
19966;DHT22;10144;50.874;4.762;2023-05-07T15:24:08;21.50;99.90
19966;DHT22;10144;50.874;4.762;2023-05-07T15:26:34;21.60;99.90
19966;DHT22;10144;50.874;4.762;2023-05-07T15:28:59;21.60;99.90
19966;DHT22;10144;50.874;4.762;2023-05-07T15:31:25;21.50;99.90
19966;DHT22;10144;50.874;4.762;2023-05-07T15:33:51;21.50;99.90
19966;DHT22;10144;50.874;4.762;2023-05-07T15:36:20;21.60;99.90
19966;DHT22;10144;50.874;4.762;2023-05-07T15:38:45;21.60;99.90
19966;DHT22;10144;50.874;4.762;2023-05-07T15:41:11;21.70;99.90
19966;DHT22;10144;50.874;4.762;2023-05-07T15:43:47;21.70;99.90
19966;DHT22;10144;50.874;4.762;2023-05-07T15:46:20;21.70;99.90
19966;DHT22;10144;50.874;4.762;2023-05-07T15:48:48;21.60;99.90